Terminal Aerodrome Forecast
Issued by NWS

Home | Current Version | Previous Version | Text Only | Print | Product List | Glossary On
Versions: 1 2 3 4 5 6 7 8 9 10 11 12 13 14 15 16 17 18 19 20 21 22 23 24 25 26 27 28 29
000
FTUS42 KJAX 200900 AAA
TAFVQQ
TAF AMD
KVQQ 200944Z 2010/2106 36005KT P6SM VCSH SCT004 OVC018
      TEMPO 2010/2013 5SM BR OVC004
     FM202100 03007KT P6SM -SHRA OVC030
     FM210500 34004KT P6SM SCT035=

USA.gov is the U.S. government's official web portal to all federal, state and local government web resources and services.